createdAt,value
2022-10-01T00:00:19.962Z,8.000000
2022-10-01T00:05:35.463Z,8.000000
2022-10-01T00:10:25.863Z,8.000000
2022-10-01T00:15:30.501Z,7.400000
2022-10-01T00:20:35.608Z,7.000000
2022-10-01T00:25:17.228Z,7.000000
2022-10-01T00:30:19.813Z,7.000000
2022-10-01T00:35:23.281Z,7.000000
2022-10-01T00:40:26.139Z,7.000000
2022-10-01T00:45:29.319Z,8.800000
2022-10-01T00:50:32.115Z,10.000000
2022-10-01T00:55:35.040Z,8.000000
2022-10-01T01:00:29.259Z,7.000000
2022-10-01T01:05:20.084Z,7.000000
2022-10-01T01:10:22.424Z,7.000000
2022-10-01T01:15:25.493Z,7.000000
2022-10-01T01:20:28.233Z,7.000000
2022-10-01T01:25:31.057Z,7.000000
2022-10-01T01:30:34.486Z,7.000000
2022-10-01T01:35:17.416Z,7.666667
2022-10-01T01:40:20.996Z,8.000000
2022-10-01T01:45:24.287Z,7.357143
2022-10-01T01:50:27.067Z,7.000000
2022-10-01T01:55:29.975Z,5.000000
2022-10-01T02:00:33.048Z,4.000000
2022-10-01T02:05:16.115Z,6.000000
2022-10-01T02:10:20.487Z,7.000000
2022-10-01T02:15:25.333Z,7.000000
2022-10-01T02:20:31.034Z,7.000000
2022-10-01T02:25:30.537Z,7.000000
2022-10-01T02:30:17.185Z,7.000000
2022-10-01T02:35:25.227Z,7.000000
2022-10-01T02:40:27.782Z,7.000000
2022-10-01T02:45:20.765Z,5.071429
2022-10-01T02:50:25.335Z,4.000000
2022-10-01T02:55:29.987Z,6.400000
2022-10-01T03:00:34.438Z,8.000000
2022-10-01T03:05:17.807Z,10.000000
2022-10-01T03:10:21.510Z,11.000000
2022-10-01T03:15:25.226Z,8.428571
2022-10-01T03:20:29.003Z,7.000000
2022-10-01T03:25:33.121Z,5.000000
2022-10-01T03:30:17.228Z,4.000000
2022-10-01T03:35:21.527Z,7.333333
2022-10-01T03:40:25.463Z,9.000000
2022-10-01T03:45:29.142Z,6.600000
2022-10-01T03:50:32.933Z,5.000000
2022-10-01T03:55:16.044Z,7.000000
2022-10-01T04:00:19.833Z,8.000000
2022-10-01T04:05:23.931Z,6.071429
2022-10-01T04:10:28.443Z,5.000000
2022-10-01T04:15:32.498Z,7.666667
2022-10-01T04:20:36.026Z,9.000000
2022-10-01T04:25:19.354Z,9.000000
2022-10-01T04:30:22.525Z,9.000000
2022-10-01T04:35:25.317Z,6.600000
2022-10-01T04:40:28.318Z,5.000000
2022-10-01T04:45:32.115Z,7.666667
2022-10-01T04:50:35.405Z,9.000000
2022-10-01T04:55:18.782Z,6.333333
2022-10-01T05:00:27.528Z,5.000000
2022-10-01T05:05:30.392Z,7.666667
2022-10-01T05:10:33.607Z,9.000000
2022-10-01T05:15:16.945Z,8.333333
2022-10-01T05:20:20.847Z,8.000000
2022-10-01T05:25:23.974Z,6.071429
2022-10-01T05:30:27.835Z,5.000000
2022-10-01T05:35:32.080Z,9.666667
2022-10-01T05:40:36.083Z,12.000000
2022-10-01T05:45:26.813Z,8.307692
2022-10-01T05:50:30.334Z,6.000000
2022-10-01T05:55:33.384Z,5.333333
2022-10-01T06:00:15.986Z,5.000000
2022-10-01T06:05:18.741Z,5.000000
2022-10-01T06:10:21.604Z,5.000000
2022-10-01T06:15:24.037Z,8.857143
2022-10-01T06:20:26.613Z,11.000000
2022-10-01T06:25:29.432Z,9.000000
2022-10-01T06:30:31.992Z,8.000000
2022-10-01T06:35:34.651Z,7.333333
2022-10-01T06:40:17.010Z,7.000000
2022-10-01T06:45:19.629Z,8.333333
2022-10-01T06:50:22.667Z,9.000000
2022-10-01T06:55:25.916Z,8.400000
2022-10-01T07:00:28.650Z,8.000000
2022-10-01T07:05:31.892Z,6.000000
2022-10-01T07:10:34.540Z,5.000000
2022-10-01T07:15:17.060Z,7.666667
2022-10-01T07:20:19.716Z,9.000000
2022-10-01T07:25:22.146Z,7.071429
2022-10-01T07:30:24.711Z,6.000000
2022-10-01T07:35:27.395Z,7.800000
2022-10-01T07:40:29.926Z,9.000000
2022-10-01T07:45:32.542Z,7.000000
2022-10-01T07:50:35.165Z,6.000000
2022-10-01T07:55:17.423Z,6.000000
2022-10-01T08:00:20.239Z,6.000000
2022-10-01T08:05:22.805Z,7.928571
2022-10-01T08:10:25.351Z,9.000000
2022-10-01T08:15:28.101Z,6.600000
2022-10-01T08:20:30.710Z,5.000000
2022-10-01T08:25:33.200Z,9.000000
2022-10-01T08:30:35.860Z,11.000000
2022-10-01T08:35:18.211Z,7.666667
2022-10-01T08:40:21.254Z,6.000000
2022-10-01T08:45:23.490Z,7.928571
2022-10-01T08:50:25.939Z,9.000000
2022-10-01T08:55:28.594Z,7.200000
2022-10-01T09:00:31.456Z,6.000000
2022-10-01T09:05:34.427Z,8.666667
2022-10-01T09:10:17.407Z,10.000000
2022-10-01T09:15:20.600Z,9.333333
2022-10-01T09:20:23.461Z,9.000000
2022-10-01T09:25:25.855Z,9.600000
2022-10-01T09:30:28.980Z,10.000000
2022-10-01T09:35:44.363Z,7.333333
2022-10-01T09:40:35.500Z,6.000000
2022-10-01T09:45:18.270Z,9.333333
2022-10-01T09:50:20.637Z,11.000000
2022-10-01T09:55:23.294Z,9.714286
2022-10-01T10:00:26.080Z,9.000000
2022-10-01T10:05:28.487Z,7.200000
2022-10-01T10:10:31.306Z,6.000000
2022-10-01T10:15:35.350Z,6.666667
2022-10-01T10:20:18.656Z,7.000000
2022-10-01T10:25:23.898Z,8.928571
2022-10-01T10:30:27.315Z,10.000000
2022-10-01T10:35:30.600Z,10.666667
2022-10-01T10:40:34.084Z,11.000000
2022-10-01T10:45:16.987Z,8.333333
2022-10-01T10:50:20.932Z,7.000000
2022-10-01T10:55:24.042Z,8.285714
2022-10-01T11:00:27.523Z,9.000000
2022-10-01T11:05:30.581Z,12.333333
2022-10-01T11:10:33.657Z,14.000000
2022-10-01T11:15:16.548Z,10.000000
2022-10-01T11:20:21.050Z,8.000000
2022-10-01T11:25:22.905Z,10.571429
2022-10-01T11:30:26.618Z,12.000000
2022-10-01T11:35:21.386Z,10.200000
2022-10-01T11:40:33.366Z,9.000000
2022-10-01T11:45:16.690Z,11.000000
2022-10-01T11:50:20.765Z,12.000000
2022-10-01T11:55:23.183Z,9.428571
2022-10-01T12:00:27.501Z,8.000000
2022-10-01T12:05:30.541Z,10.000000
2022-10-01T12:10:33.644Z,11.000000
2022-10-01T12:15:16.179Z,11.000000
2022-10-01T12:20:19.433Z,11.000000
2022-10-01T12:25:21.926Z,11.000000
2022-10-01T12:30:24.458Z,11.000000
2022-10-01T12:35:28.044Z,9.200000
2022-10-01T12:40:31.773Z,8.000000
2022-10-01T12:45:34.983Z,10.666667
2022-10-01T12:50:17.597Z,12.000000
2022-10-01T12:55:20.690Z,12.666667
2022-10-01T13:00:23.934Z,13.000000
2022-10-01T13:05:26.635Z,13.000000
2022-10-01T13:10:41.496Z,13.000000
2022-10-01T13:15:32.542Z,13.666667
2022-10-01T13:20:27.957Z,14.000000
2022-10-01T13:25:18.558Z,16.000000
2022-10-01T13:30:22.194Z,17.000000
2022-10-01T13:35:25.649Z,12.800000
2022-10-01T13:40:28.271Z,10.000000
2022-10-01T13:45:31.577Z,14.666667
2022-10-01T13:50:34.999Z,17.000000
2022-10-01T13:55:17.805Z,16.333333
2022-10-01T14:00:20.662Z,16.000000
2022-10-01T14:05:23.811Z,14.714286
2022-10-01T14:10:26.804Z,14.000000
2022-10-01T14:15:42.308Z,14.000000
2022-10-01T14:20:18.071Z,14.000000
2022-10-01T14:25:23.824Z,13.400000
2022-10-01T14:30:27.476Z,13.000000
2022-10-01T14:35:30.709Z,13.666667
2022-10-01T14:40:34.979Z,14.000000
2022-10-01T14:45:18.199Z,13.333333
2022-10-01T14:50:21.358Z,13.000000
2022-10-01T14:55:24.442Z,11.714286
2022-10-01T15:00:27.454Z,11.000000
2022-10-01T15:05:30.801Z,15.000000
2022-10-01T15:10:33.554Z,17.000000
2022-10-01T15:15:16.718Z,13.666667
2022-10-01T15:20:19.305Z,12.000000
2022-10-01T15:25:22.433Z,17.142857
2022-10-01T15:30:25.244Z,20.000000
2022-10-01T15:35:28.186Z,22.400000
2022-10-01T15:40:31.721Z,24.000000
2022-10-01T15:45:34.589Z,16.000000
2022-10-01T15:50:17.111Z,12.000000
2022-10-01T15:55:20.059Z,37.333333
2022-10-01T16:00:22.406Z,50.000000
2022-10-01T16:05:25.620Z,42.800000
2022-10-01T16:10:41.029Z,38.000000
2022-10-01T16:15:31.766Z,24.000000
2022-10-01T16:20:34.695Z,17.000000
2022-10-01T16:25:17.070Z,11.666667
2022-10-01T16:30:20.179Z,9.000000
2022-10-01T16:35:22.585Z,9.000000
2022-10-01T16:40:25.400Z,9.000000
2022-10-01T16:45:28.825Z,10.800000
2022-10-01T16:50:31.901Z,12.000000
2022-10-01T16:55:34.863Z,11.333333
2022-10-01T17:00:16.904Z,11.000000
2022-10-01T17:05:19.439Z,10.333333
2022-10-01T17:10:22.331Z,10.000000
2022-10-01T17:15:24.697Z,9.357143
2022-10-01T17:20:27.008Z,9.000000
2022-10-01T17:25:29.668Z,7.666667
2022-10-01T17:30:32.274Z,7.000000
2022-10-01T17:35:34.904Z,7.000000
2022-10-01T17:40:17.306Z,7.000000
2022-10-01T17:45:19.966Z,8.333333
2022-10-01T17:50:22.933Z,9.000000
2022-10-01T17:55:26.083Z,7.200000
2022-10-01T18:00:28.779Z,6.000000
2022-10-01T18:05:31.773Z,7.333333
2022-10-01T18:10:34.612Z,8.000000
2022-10-01T18:15:16.934Z,9.333333
2022-10-01T18:20:19.752Z,10.000000
2022-10-01T18:25:22.331Z,8.071429
2022-10-01T18:30:24.892Z,7.000000
2022-10-01T18:35:27.471Z,9.400000
2022-10-01T18:40:30.020Z,11.000000
2022-10-01T18:45:32.572Z,9.666667
2022-10-01T18:50:35.799Z,9.000000
2022-10-01T18:55:20.911Z,9.666667
2022-10-01T19:00:20.017Z,10.000000
2022-10-01T19:05:22.671Z,10.000000
2022-10-01T19:10:25.258Z,10.000000
2022-10-01T19:15:27.981Z,10.600000
2022-10-01T19:20:30.388Z,11.000000
2022-10-01T19:25:33.109Z,11.000000
2022-10-01T19:30:35.638Z,11.000000
2022-10-01T19:35:17.788Z,12.333333
2022-10-01T19:40:20.482Z,13.000000
2022-10-01T19:45:23.050Z,65.714286
2022-10-01T19:50:25.805Z,95.000000
2022-10-01T19:55:28.228Z,44.000000
2022-10-01T20:00:31.513Z,10.000000
2022-10-01T20:05:34.607Z,8.666667
2022-10-01T20:10:17.504Z,8.000000
2022-10-01T20:15:20.457Z,6.666667
2022-10-01T20:20:23.072Z,6.000000
2022-10-01T20:25:25.835Z,8.400000
2022-10-01T20:30:28.588Z,10.000000
2022-10-01T20:35:32.125Z,8.666667
2022-10-01T20:40:35.254Z,8.000000
2022-10-01T20:45:17.600Z,8.666667
2022-10-01T20:50:20.252Z,9.000000
2022-10-01T20:55:22.823Z,8.357143
2022-10-01T21:00:25.440Z,8.000000
2022-10-01T21:05:28.495Z,8.000000
2022-10-01T21:10:32.191Z,8.000000
2022-10-01T21:15:35.438Z,7.333333
2022-10-01T21:20:17.751Z,7.000000
2022-10-01T21:25:21.292Z,8.333333
2022-10-01T21:30:24.132Z,9.000000
2022-10-01T21:35:27.621Z,8.400000
2022-10-01T21:40:30.033Z,8.000000
2022-10-01T21:45:32.786Z,8.000000
2022-10-01T21:50:35.650Z,8.000000
2022-10-01T21:55:17.611Z,7.333333
2022-10-01T22:00:20.399Z,7.000000
2022-10-01T22:05:23.683Z,7.000000
2022-10-01T22:10:26.936Z,7.000000
2022-10-01T22:15:30.003Z,7.666667
2022-10-01T22:20:33.225Z,8.000000
2022-10-01T22:25:16.682Z,9.333333
2022-10-01T22:30:19.878Z,10.000000
2022-10-01T22:35:22.215Z,8.714286
2022-10-01T22:40:25.089Z,8.000000
2022-10-01T22:45:28.073Z,6.800000
2022-10-01T22:50:31.506Z,6.000000
2022-10-01T22:55:34.825Z,7.333333
2022-10-01T23:05:28.665Z,8.000000
2022-10-01T23:10:30.673Z,8.000000
2022-10-01T23:15:33.148Z,8.666667
2022-10-01T23:20:35.902Z,9.000000
2022-10-01T23:25:18.308Z,10.333333
2022-10-01T23:30:21.239Z,11.000000
2022-10-01T23:35:23.631Z,9.071429
2022-10-01T23:40:26.564Z,8.000000
2022-10-01T23:45:28.803Z,8.000000
2022-10-01T23:50:31.467Z,8.000000
2022-10-01T23:55:34.100Z,7.333333
